sensor_id;sensor_type;location;lat;lon;timestamp;pressure;altitude;pressure_sealevel;temperature;humidity
52797;BME280;38666;43.348;12.584;2022-12-07T06:54:53;95272.88;;;8.29;100.00
52797;BME280;38666;43.348;12.584;2022-12-07T06:57:19;95277.09;;;8.34;100.00
52797;BME280;38666;43.348;12.584;2022-12-07T06:59:45;95275.16;;;8.35;100.00
52797;BME280;38666;43.348;12.584;2022-12-07T07:02:10;95270.53;;;8.31;100.00
52797;BME280;38666;43.348;12.584;2022-12-07T07:04:36;95272.06;;;8.33;100.00
52797;BME280;38666;43.348;12.584;2022-12-07T07:07:01;95265.81;;;8.36;100.00
52797;BME280;38666;43.348;12.584;2022-12-07T07:09:27;95273.19;;;8.39;100.00
52797;BME280;38666;43.348;12.584;2022-12-07T07:11:52;95268.94;;;8.38;100.00
52797;BME280;38666;43.348;12.584;2022-12-07T07:14:18;95265.81;;;8.43;100.00
52797;BME280;38666;43.348;12.584;2022-12-07T07:16:44;95265.00;;;8.46;100.00
52797;BME280;38666;43.348;12.584;2022-12-07T07:19:10;95262.25;;;8.53;100.00
52797;BME280;38666;43.348;12.584;2022-12-07T07:21:36;95272.00;;;8.51;100.00
52797;BME280;38666;43.348;12.584;2022-12-07T07:24:02;95272.75;;;8.59;100.00
52797;BME280;38666;43.348;12.584;2022-12-07T07:26:27;95275.47;;;8.59;100.00
52797;BME280;38666;43.348;12.584;2022-12-07T07:28:53;95272.00;;;8.58;100.00
52797;BME280;38666;43.348;12.584;2022-12-07T07:31:18;95268.06;;;8.63;100.00
52797;BME280;38666;43.348;12.584;2022-12-07T07:33:45;95276.91;;;8.82;100.00
52797;BME280;38666;43.348;12.584;2022-12-07T07:36:11;95281.53;;;8.92;100.00
52797;BME280;38666;43.348;12.584;2022-12-07T07:38:37;95278.41;;;9.47;100.00
52797;BME280;38666;43.348;12.584;2022-12-07T07:41:02;95276.72;;;10.38;100.00
52797;BME280;38666;43.348;12.584;2022-12-07T07:43:28;95278.84;;;11.16;89.00
52797;BME280;38666;43.348;12.584;2022-12-07T07:45:53;95279.78;;;12.02;80.08
52797;BME280;38666;43.348;12.584;2022-12-07T07:48:19;95275.38;;;12.49;75.24
52797;BME280;38666;43.348;12.584;2022-12-07T07:50:44;95280.84;;;12.69;73.15
52797;BME280;38666;43.348;12.584;2022-12-07T07:53:10;95289.84;;;11.85;80.55
52797;BME280;38666;43.348;12.584;2022-12-07T07:55:35;95280.06;;;11.39;81.75
52797;BME280;38666;43.348;12.584;2022-12-07T07:58:01;95284.69;;;11.42;81.47
52797;BME280;38666;43.348;12.584;2022-12-07T08:00:26;95292.31;;;11.55;81.83
52797;BME280;38666;43.348;12.584;2022-12-07T08:02:52;95289.94;;;11.57;78.50
52797;BME280;38666;43.348;12.584;2022-12-07T08:05:17;95294.97;;;11.59;78.36
52797;BME280;38666;43.348;12.584;2022-12-07T08:07:43;95293.72;;;11.63;80.78
52797;BME280;38666;43.348;12.584;2022-12-07T08:10:11;95298.22;;;11.74;81.27
52797;BME280;38666;43.348;12.584;2022-12-07T08:12:40;95298.84;;;11.85;78.68
52797;BME280;38666;43.348;12.584;2022-12-07T08:15:28;95302.16;;;11.73;81.83
52797;BME280;38666;43.348;12.584;2022-12-07T08:17:54;95294.84;;;11.66;82.49
52797;BME280;38666;43.348;12.584;2022-12-07T08:20:20;95296.81;;;11.89;86.60
52797;BME280;38666;43.348;12.584;2022-12-07T08:22:45;95300.13;;;12.82;79.78
52797;BME280;38666;43.348;12.584;2022-12-07T08:25:10;95303.00;;;13.82;75.24
52797;BME280;38666;43.348;12.584;2022-12-07T08:27:36;95302.88;;;14.32;72.66
52797;BME280;38666;43.348;12.584;2022-12-07T08:30:02;95301.25;;;14.05;72.17
52797;BME280;38666;43.348;12.584;2022-12-07T08:32:27;95307.28;;;13.83;74.29
52797;BME280;38666;43.348;12.584;2022-12-07T08:34:53;95300.59;;;13.68;74.65
52797;BME280;38666;43.348;12.584;2022-12-07T08:37:18;95303.50;;;13.60;73.97
52797;BME280;38666;43.348;12.584;2022-12-07T08:39:44;95301.19;;;13.42;71.26
52797;BME280;38666;43.348;12.584;2022-12-07T08:42:09;95315.66;;;13.43;69.76
52797;BME280;38666;43.348;12.584;2022-12-07T08:44:35;95308.81;;;13.51;68.31
52797;BME280;38666;43.348;12.584;2022-12-07T08:47:03;95318.78;;;13.62;67.82
52797;BME280;38666;43.348;12.584;2022-12-07T08:49:39;95321.41;;;13.48;67.00
52797;BME280;38666;43.348;12.584;2022-12-07T08:52:06;95313.84;;;12.82;77.16
52797;BME280;38666;43.348;12.584;2022-12-07T08:54:34;95318.81;;;12.87;81.47
52797;BME280;38666;43.348;12.584;2022-12-07T08:57:01;95322.34;;;13.42;76.92
52797;BME280;38666;43.348;12.584;2022-12-07T08:59:27;95326.31;;;13.04;80.15
52797;BME280;38666;43.348;12.584;2022-12-07T09:01:53;95319.16;;;12.90;84.31
52797;BME280;38666;43.348;12.584;2022-12-07T09:04:19;95318.53;;;13.56;80.68
52797;BME280;38666;43.348;12.584;2022-12-07T09:06:46;95317.22;;;13.94;77.78
52797;BME280;38666;43.348;12.584;2022-12-07T09:09:12;95316.19;;;14.04;74.80
52797;BME280;38666;43.348;12.584;2022-12-07T09:11:38;95324.78;;;13.73;74.78
52797;BME280;38666;43.348;12.584;2022-12-07T09:14:04;95317.78;;;13.02;79.56
52797;BME280;38666;43.348;12.584;2022-12-07T09:16:30;95327.72;;;12.55;85.74
52797;BME280;38666;43.348;12.584;2022-12-07T09:18:55;95314.00;;;12.55;87.72
52797;BME280;38666;43.348;12.584;2022-12-07T09:21:21;95312.97;;;13.06;85.86
52797;BME280;38666;43.348;12.584;2022-12-07T09:23:46;95318.97;;;12.39;87.72
52797;BME280;38666;43.348;12.584;2022-12-07T09:26:12;95316.53;;;12.45;88.44
52797;BME280;38666;43.348;12.584;2022-12-07T09:28:38;95313.75;;;13.06;84.14
52797;BME280;38666;43.348;12.584;2022-12-07T09:31:04;95319.97;;;13.77;79.24
52797;BME280;38666;43.348;12.584;2022-12-07T09:33:30;95317.97;;;13.94;76.05
52797;BME280;38666;43.348;12.584;2022-12-07T09:35:55;95318.47;;;13.39;78.43
52797;BME280;38666;43.348;12.584;2022-12-07T09:38:21;95322.09;;;12.62;84.09
52797;BME280;38666;43.348;12.584;2022-12-07T09:40:47;95320.56;;;12.40;86.02
52797;BME280;38666;43.348;12.584;2022-12-07T09:43:31;95321.75;;;12.97;80.07
52797;BME280;38666;43.348;12.584;2022-12-07T09:45:56;95317.50;;;13.12;71.34
52797;BME280;38666;43.348;12.584;2022-12-07T09:48:42;95314.53;;;13.07;68.06
52797;BME280;38666;43.348;12.584;2022-12-07T09:51:26;95308.13;;;13.47;68.81
52797;BME280;38666;43.348;12.584;2022-12-07T09:53:53;95302.19;;;13.99;66.17
52797;BME280;38666;43.348;12.584;2022-12-07T09:56:20;95296.03;;;14.54;62.31
52797;BME280;38666;43.348;12.584;2022-12-07T09:58:46;95298.81;;;14.67;61.16
52797;BME280;38666;43.348;12.584;2022-12-07T10:01:18;95293.53;;;14.60;62.65
52797;BME280;38666;43.348;12.584;2022-12-07T10:03:54;95289.88;;;15.93;56.97
52797;BME280;38666;43.348;12.584;2022-12-07T10:06:23;95288.31;;;15.57;58.26
52797;BME280;38666;43.348;12.584;2022-12-07T10:08:48;95278.81;;;15.71;57.89
52797;BME280;38666;43.348;12.584;2022-12-07T10:11:14;95281.56;;;16.19;54.73
52797;BME280;38666;43.348;12.584;2022-12-07T10:13:42;95272.00;;;15.98;55.45
52797;BME280;38666;43.348;12.584;2022-12-07T10:16:35;95264.56;;;15.11;57.97
52797;BME280;38666;43.348;12.584;2022-12-07T10:19:23;95270.66;;;14.63;60.95
52797;BME280;38666;43.348;12.584;2022-12-07T10:22:18;95276.78;;;15.36;59.26
52797;BME280;38666;43.348;12.584;2022-12-07T10:24:46;95264.34;;;15.18;59.53
52797;BME280;38666;43.348;12.584;2022-12-07T10:27:31;95270.50;;;14.96;61.95
52797;BME280;38666;43.348;12.584;2022-12-07T10:29:58;95268.22;;;15.08;61.26
52797;BME280;38666;43.348;12.584;2022-12-07T10:32:28;95275.94;;;15.74;59.09
52797;BME280;38666;43.348;12.584;2022-12-07T10:37:42;95253.69;;;19.87;49.66
52797;BME280;38666;43.348;12.584;2022-12-07T10:40:31;95258.34;;;19.56;46.58
52797;BME280;38666;43.348;12.584;2022-12-07T10:43:20;95259.41;;;17.09;54.36
52797;BME280;38666;43.348;12.584;2022-12-07T10:51:41;95256.53;;;13.08;72.78
52797;BME280;38666;43.348;12.584;2022-12-07T11:08:21;95244.84;;;12.87;73.35
52797;BME280;38666;43.348;12.584;2022-12-07T11:11:14;95224.34;;;12.59;75.85
52797;BME280;38666;43.348;12.584;2022-12-07T11:24:16;95227.69;;;12.67;73.50
52797;BME280;38666;43.348;12.584;2022-12-07T11:29:52;95223.13;;;12.23;77.03
52797;BME280;38666;43.348;12.584;2022-12-07T11:37:59;95212.91;;;12.23;77.93
52797;BME280;38666;43.348;12.584;2022-12-07T11:40:34;95212.16;;;12.23;77.71
52797;BME280;38666;43.348;12.584;2022-12-07T11:45:42;95217.72;;;11.75;81.45
52797;BME280;38666;43.348;12.584;2022-12-07T11:48:20;95197.13;;;11.90;83.03
52797;BME280;38666;43.348;12.584;2022-12-07T11:50:51;95205.19;;;11.98;83.25
52797;BME280;38666;43.348;12.584;2022-12-07T11:53:29;95208.53;;;12.06;83.54
52797;BME280;38666;43.348;12.584;2022-12-07T11:56:16;95211.50;;;11.95;86.06
52797;BME280;38666;43.348;12.584;2022-12-07T12:04:18;95211.09;;;11.96;87.61
52797;BME280;38666;43.348;12.584;2022-12-07T12:06:48;95200.69;;;11.87;87.30
52797;BME280;38666;43.348;12.584;2022-12-07T12:09:31;95202.78;;;11.79;89.78
52797;BME280;38666;43.348;12.584;2022-12-07T12:18:00;95203.69;;;11.73;92.76
52797;BME280;38666;43.348;12.584;2022-12-07T12:24:04;95181.69;;;12.21;92.51
52797;BME280;38666;43.348;12.584;2022-12-07T12:26:36;95184.53;;;12.87;89.94
52797;BME280;38666;43.348;12.584;2022-12-07T12:29:05;95180.97;;;13.24;82.78
52797;BME280;38666;43.348;12.584;2022-12-07T12:31:40;95185.22;;;13.42;83.51
52797;BME280;38666;43.348;12.584;2022-12-07T12:34:30;95183.53;;;13.31;80.79
52797;BME280;38666;43.348;12.584;2022-12-07T12:36:56;95175.47;;;13.24;82.20
52797;BME280;38666;43.348;12.584;2022-12-07T12:39:21;95170.69;;;13.28;80.24
52797;BME280;38666;43.348;12.584;2022-12-07T12:47:04;95161.69;;;13.74;75.30
52797;BME280;38666;43.348;12.584;2022-12-07T12:57:34;95158.38;;;13.03;82.66
52797;BME280;38666;43.348;12.584;2022-12-07T13:26:19;95156.16;;;12.07;90.82
52797;BME280;38666;43.348;12.584;2022-12-07T13:29:15;95156.63;;;12.02;91.51
52797;BME280;38666;43.348;12.584;2022-12-07T13:31:49;95155.56;;;11.96;91.08
52797;BME280;38666;43.348;12.584;2022-12-07T13:34:34;95145.91;;;12.11;89.96
52797;BME280;38666;43.348;12.584;2022-12-07T13:39:47;95138.81;;;12.14;91.89
52797;BME280;38666;43.348;12.584;2022-12-07T13:42:26;95143.09;;;12.15;90.93
52797;BME280;38666;43.348;12.584;2022-12-07T13:44:52;95142.66;;;12.16;91.10
52797;BME280;38666;43.348;12.584;2022-12-07T13:47:44;95143.44;;;12.17;89.97
52797;BME280;38666;43.348;12.584;2022-12-07T13:50:28;95147.94;;;12.07;90.08
52797;BME280;38666;43.348;12.584;2022-12-07T13:52:56;95145.41;;;11.96;92.13
52797;BME280;38666;43.348;12.584;2022-12-07T13:55:22;95143.09;;;11.95;93.86
52797;BME280;38666;43.348;12.584;2022-12-07T13:57:50;95133.69;;;11.96;93.87
52797;BME280;38666;43.348;12.584;2022-12-07T14:00:21;95132.56;;;11.93;93.17
52797;BME280;38666;43.348;12.584;2022-12-07T14:05:39;95152.63;;;11.86;92.86
52797;BME280;38666;43.348;12.584;2022-12-07T14:08:22;95148.28;;;11.68;93.32
52797;BME280;38666;43.348;12.584;2022-12-07T14:13:38;95142.38;;;11.50;96.17
52797;BME280;38666;43.348;12.584;2022-12-07T14:16:32;95149.31;;;11.54;97.09
52797;BME280;38666;43.348;12.584;2022-12-07T14:18:59;95150.22;;;11.48;98.15
52797;BME280;38666;43.348;12.584;2022-12-07T14:21:29;95146.63;;;11.30;100.00
52797;BME280;38666;43.348;12.584;2022-12-07T14:26:40;95151.97;;;11.38;100.00
52797;BME280;38666;43.348;12.584;2022-12-07T14:29:20;95162.13;;;11.37;100.00
52797;BME280;38666;43.348;12.584;2022-12-07T14:31:45;95152.72;;;11.38;100.00
52797;BME280;38666;43.348;12.584;2022-12-07T14:34:12;95157.34;;;11.41;100.00
52797;BME280;38666;43.348;12.584;2022-12-07T14:36:38;95162.91;;;11.38;100.00
52797;BME280;38666;43.348;12.584;2022-12-07T14:39:03;95157.50;;;11.34;100.00
52797;BME280;38666;43.348;12.584;2022-12-07T14:41:29;95170.88;;;11.28;100.00
52797;BME280;38666;43.348;12.584;2022-12-07T14:44:13;95159.16;;;11.28;100.00
52797;BME280;38666;43.348;12.584;2022-12-07T14:46:38;95167.66;;;11.34;100.00
52797;BME280;38666;43.348;12.584;2022-12-07T14:49:04;95167.25;;;11.35;100.00
52797;BME280;38666;43.348;12.584;2022-12-07T14:51:30;95167.13;;;11.42;100.00
52797;BME280;38666;43.348;12.584;2022-12-07T14:53:56;95169.72;;;11.50;100.00
52797;BME280;38666;43.348;12.584;2022-12-07T14:56:21;95171.19;;;11.54;100.00
52797;BME280;38666;43.348;12.584;2022-12-07T14:58:46;95175.44;;;11.59;100.00
52797;BME280;38666;43.348;12.584;2022-12-07T15:01:13;95170.84;;;11.52;99.21
52797;BME280;38666;43.348;12.584;2022-12-07T15:03:39;95167.91;;;11.43;99.91
52797;BME280;38666;43.348;12.584;2022-12-07T15:06:05;95165.28;;;11.36;100.00
52797;BME280;38666;43.348;12.584;2022-12-07T15:08:31;95160.78;;;11.25;100.00
52797;BME280;38666;43.348;12.584;2022-12-07T15:10:57;95159.28;;;11.20;100.00
52797;BME280;38666;43.348;12.584;2022-12-07T15:13:22;95164.06;;;11.16;100.00
52797;BME280;38666;43.348;12.584;2022-12-07T15:16:10;95159.88;;;11.08;100.00
52797;BME280;38666;43.348;12.584;2022-12-07T15:18:37;95163.09;;;11.03;100.00
52797;BME280;38666;43.348;12.584;2022-12-07T15:21:03;95162.66;;;11.04;100.00
52797;BME280;38666;43.348;12.584;2022-12-07T15:23:28;95155.38;;;10.98;100.00
52797;BME280;38666;43.348;12.584;2022-12-07T15:25:53;95153.13;;;10.92;100.00
52797;BME280;38666;43.348;12.584;2022-12-07T15:28:19;95152.88;;;10.83;100.00
52797;BME280;38666;43.348;12.584;2022-12-07T15:30:45;95151.44;;;10.75;100.00
52797;BME280;38666;43.348;12.584;2022-12-07T15:33:11;95149.97;;;10.70;100.00
52797;BME280;38666;43.348;12.584;2022-12-07T15:35:44;95142.63;;;10.63;100.00
52797;BME280;38666;43.348;12.584;2022-12-07T15:38:10;95151.66;;;10.60;100.00
52797;BME280;38666;43.348;12.584;2022-12-07T15:40:37;95150.94;;;10.56;100.00
52797;BME280;38666;43.348;12.584;2022-12-07T15:43:03;95155.69;;;10.52;100.00
52797;BME280;38666;43.348;12.584;2022-12-07T15:45:29;95154.16;;;10.47;100.00
52797;BME280;38666;43.348;12.584;2022-12-07T15:47:54;95146.78;;;10.44;100.00
52797;BME280;38666;43.348;12.584;2022-12-07T15:50:21;95157.28;;;10.45;100.00
52797;BME280;38666;43.348;12.584;2022-12-07T15:52:47;95156.84;;;10.51;100.00
52797;BME280;38666;43.348;12.584;2022-12-07T15:55:12;95154.97;;;10.44;100.00
52797;BME280;38666;43.348;12.584;2022-12-07T15:57:38;95159.34;;;10.38;100.00
52797;BME280;38666;43.348;12.584;2022-12-07T16:00:05;95168.00;;;10.32;100.00
52797;BME280;38666;43.348;12.584;2022-12-07T16:02:31;95164.53;;;10.28;100.00
52797;BME280;38666;43.348;12.584;2022-12-07T16:04:57;95167.63;;;10.30;100.00
52797;BME280;38666;43.348;12.584;2022-12-07T16:07:22;95167.63;;;10.30;100.00
52797;BME280;38666;43.348;12.584;2022-12-07T16:09:48;95166.94;;;10.22;100.00
52797;BME280;38666;43.348;12.584;2022-12-07T16:12:15;95174.06;;;10.16;100.00
52797;BME280;38666;43.348;12.584;2022-12-07T16:14:41;95173.22;;;10.19;100.00
52797;BME280;38666;43.348;12.584;2022-12-07T16:17:08;95169.25;;;10.24;100.00
52797;BME280;38666;43.348;12.584;2022-12-07T16:19:35;95177.00;;;10.29;100.00
52797;BME280;38666;43.348;12.584;2022-12-07T16:22:01;95176.19;;;10.32;100.00
52797;BME280;38666;43.348;12.584;2022-12-07T16:24:27;95184.38;;;10.32;100.00
52797;BME280;38666;43.348;12.584;2022-12-07T16:26:52;95179.69;;;10.33;100.00
52797;BME280;38666;43.348;12.584;2022-12-07T16:29:19;95182.13;;;10.27;100.00
52797;BME280;38666;43.348;12.584;2022-12-07T16:31:46;95187.25;;;10.21;100.00
52797;BME280;38666;43.348;12.584;2022-12-07T16:34:12;95184.16;;;10.19;100.00
52797;BME280;38666;43.348;12.584;2022-12-07T16:36:38;95188.06;;;10.18;100.00
52797;BME280;38666;43.348;12.584;2022-12-07T16:39:04;95185.69;;;10.20;100.00
52797;BME280;38666;43.348;12.584;2022-12-07T16:41:30;95189.97;;;10.21;100.00
52797;BME280;38666;43.348;12.584;2022-12-07T16:43:55;95184.97;;;10.16;100.00
52797;BME280;38666;43.348;12.584;2022-12-07T16:46:21;95187.69;;;10.16;100.00
52797;BME280;38666;43.348;12.584;2022-12-07T16:48:46;95190.06;;;10.14;100.00
52797;BME280;38666;43.348;12.584;2022-12-07T16:51:13;95182.34;;;10.09;100.00
52797;BME280;38666;43.348;12.584;2022-12-07T16:53:40;95178.88;;;10.05;100.00
52797;BME280;38666;43.348;12.584;2022-12-07T16:56:11;95191.34;;;10.06;100.00
52797;BME280;38666;43.348;12.584;2022-12-07T16:58:37;95186.72;;;9.99;100.00
52797;BME280;38666;43.348;12.584;2022-12-07T17:01:22;95195.34;;;9.94;100.00
52797;BME280;38666;43.348;12.584;2022-12-07T17:03:48;95189.16;;;9.93;100.00
52797;BME280;38666;43.348;12.584;2022-12-07T17:06:18;95184.41;;;9.97;100.00
52797;BME280;38666;43.348;12.584;2022-12-07T17:08:44;95192.13;;;10.03;100.00
52797;BME280;38666;43.348;12.584;2022-12-07T17:11:22;95185.47;;;10.07;100.00
52797;BME280;38666;43.348;12.584;2022-12-07T17:13:48;95186.22;;;10.08;100.00
52797;BME280;38666;43.348;12.584;2022-12-07T17:16:32;95194.31;;;10.15;100.00
52797;BME280;38666;43.348;12.584;2022-12-07T17:18:58;95188.16;;;10.11;100.00
52797;BME280;38666;43.348;12.584;2022-12-07T17:21:24;95194.41;;;10.08;100.00
52797;BME280;38666;43.348;12.584;2022-12-07T17:23:49;95189.41;;;10.03;100.00
52797;BME280;38666;43.348;12.584;2022-12-07T17:26:21;95192.19;;;9.99;100.00
52797;BME280;38666;43.348;12.584;2022-12-07T17:28:47;95188.69;;;9.98;100.00
52797;BME280;38666;43.348;12.584;2022-12-07T17:31:15;95180.56;;;9.95;100.00
52797;BME280;38666;43.348;12.584;2022-12-07T17:33:40;95179.81;;;9.91;100.00
52797;BME280;38666;43.348;12.584;2022-12-07T17:36:15;95187.63;;;9.88;100.00
52797;BME280;38666;43.348;12.584;2022-12-07T17:38:41;95182.16;;;9.88;100.00
52797;BME280;38666;43.348;12.584;2022-12-07T17:41:14;95177.50;;;9.89;100.00
52797;BME280;38666;43.348;12.584;2022-12-07T17:44:00;95180.59;;;9.91;100.00
52797;BME280;38666;43.348;12.584;2022-12-07T17:46:26;95180.56;;;9.95;100.00
52797;BME280;38666;43.348;12.584;2022-12-07T17:48:54;95185.59;;;9.96;100.00
52797;BME280;38666;43.348;12.584;2022-12-07T17:51:19;95184.44;;;9.94;100.00
52797;BME280;38666;43.348;12.584;2022-12-07T17:54:04;95180.22;;;9.89;100.00
52797;BME280;38666;43.348;12.584;2022-12-07T17:56:29;95168.16;;;9.86;100.00
52797;BME280;38666;43.348;12.584;2022-12-07T17:58:54;95172.91;;;9.82;100.00
52797;BME280;38666;43.348;12.584;2022-12-07T18:01:20;95185.38;;;9.80;100.00
52797;BME280;38666;43.348;12.584;2022-12-07T18:03:45;95176.03;;;9.81;100.00
52797;BME280;38666;43.348;12.584;2022-12-07T18:06:11;95179.13;;;9.83;100.00
52797;BME280;38666;43.348;12.584;2022-12-07T18:08:36;95186.09;;;9.87;100.00
52797;BME280;38666;43.348;12.584;2022-12-07T18:11:04;95189.22;;;9.86;100.00
52797;BME280;38666;43.348;12.584;2022-12-07T18:13:30;95184.16;;;9.88;100.00
52797;BME280;38666;43.348;12.584;2022-12-07T18:16:26;95182.16;;;9.88;100.00
52797;BME280;38666;43.348;12.584;2022-12-07T18:18:52;95176.72;;;9.88;100.00
52797;BME280;38666;43.348;12.584;2022-12-07T18:21:24;95186.91;;;9.84;100.00
52797;BME280;38666;43.348;12.584;2022-12-07T18:23:52;95188.44;;;9.85;100.00
52797;BME280;38666;43.348;12.584;2022-12-07T18:26:19;95189.22;;;9.86;100.00
52797;BME280;38666;43.348;12.584;2022-12-07T18:28:45;95195.41;;;9.90;100.00
52797;BME280;38666;43.348;12.584;2022-12-07T18:31:11;95185.63;;;9.93;100.00
52797;BME280;38666;43.348;12.584;2022-12-07T18:33:38;95184.47;;;9.90;100.00
52797;BME280;38666;43.348;12.584;2022-12-07T18:36:03;95182.16;;;9.88;100.00
52797;BME280;38666;43.348;12.584;2022-12-07T18:38:29;95180.66;;;9.84;100.00
52797;BME280;38666;43.348;12.584;2022-12-07T18:40:55;95174.22;;;9.70;100.00
52797;BME280;38666;43.348;12.584;2022-12-07T18:43:21;95172.00;;;9.58;100.00
52797;BME280;38666;43.348;12.584;2022-12-07T18:45:49;95170.13;;;9.47;100.00
52797;BME280;38666;43.348;12.584;2022-12-07T18:48:17;95164.78;;;9.40;100.00
52797;BME280;38666;43.348;12.584;2022-12-07T18:50:46;95179.63;;;9.32;100.00
